Time;durP1;ratioP1;P1;durP2;ratioP2;P2;SDS_P1;SDS_P2;PMS_P1;PMS_P2;Temp;Humidity;BMP_temperature;BMP_pressure;BME280_temperature;BME280_humidity;BME280_pressure;Samples;Min_cycle;Max_cycle;Signal;HPM_P1;HPM_P2
2023/03/22 00:00:37;;;;;;;2.17;1.40;;;;;;;11.76;71.18;95293.59;4354932;32;20203;-47
2023/03/22 00:03:04;;;;;;;1.27;1.27;;;;;;;11.68;71.35;95295.88;4360905;32;20176;-47
2023/03/22 00:05:30;;;;;;;1.10;1.10;;;;;;;11.92;70.67;95292.97;4352405;32;20185;-48
2023/03/22 00:07:58;;;;;;;1.53;1.53;;;;;;;11.93;70.54;95291.09;4374251;32;20185;-48
2023/03/22 00:10:26;;;;;;;1.03;1.03;;;;;;;11.74;71.37;95282.47;4366713;32;20239;-52
2023/03/22 00:12:51;;;;;;;1.20;1.20;;;;;;;11.68;71.67;95279.12;4356081;32;20215;-49
2023/03/22 00:15:17;;;;;;;0.80;0.80;;;;;;;11.75;71.47;95281.38;4370493;32;20181;-52
2023/03/22 00:17:45;;;;;;;1.40;1.40;;;;;;;11.76;71.56;95280.28;4371079;32;20199;-49
2023/03/22 00:20:11;;;;;;;1.50;1.47;;;;;;;11.76;71.53;95272.31;4365392;32;20189;-51
2023/03/22 00:22:40;;;;;;;1.57;1.47;;;;;;;11.74;71.21;95277.94;4364603;32;20279;-49
2023/03/22 00:25:05;;;;;;;1.07;1.07;;;;;;;11.57;71.83;95269.84;4370877;32;20242;-49
2023/03/22 00:27:31;;;;;;;1.60;1.50;;;;;;;11.69;71.20;95267.41;4362318;32;20184;-52
2023/03/22 00:29:56;;;;;;;2.20;1.73;;;;;;;11.60;71.63;95259.41;4358908;32;20264;-49
2023/03/22 00:32:22;;;;;;;1.57;1.47;;;;;;;11.64;71.67;95259.56;4367338;32;20235;-47
2023/03/22 00:34:47;;;;;;;1.30;1.30;;;;;;;11.56;71.85;95266.38;4364979;32;20200;-49
2023/03/22 00:37:15;;;;;;;1.47;1.43;;;;;;;11.62;71.88;95259.87;4356394;32;20200;-50
2023/03/22 00:39:40;;;;;;;0.90;0.90;;;;;;;11.57;72.12;95265.31;4359026;32;20186;-48
2023/03/22 00:42:05;;;;;;;2.13;2.00;;;;;;;11.54;72.30;95255.28;4351649;32;20200;-47
2023/03/22 00:44:31;;;;;;;1.50;1.40;;;;;;;11.36;73.05;95251.69;4355738;32;20185;-47
2023/03/22 00:46:57;;;;;;;1.90;1.80;;;;;;;11.14;73.61;95235.72;4364634;32;20215;-47
2023/03/22 00:49:24;;;;;;;2.67;1.50;;;;;;;10.87;74.87;95241.06;4366999;32;20301;-48
2023/03/22 00:51:49;;;;;;;1.50;1.50;;;;;;;10.98;74.79;95240.56;4375810;32;20263;-51
2023/03/22 00:54:16;;;;;;;1.20;1.20;;;;;;;10.94;74.93;95242.25;4354487;32;20252;-45
2023/03/22 00:56:44;;;;;;;1.07;1.07;;;;;;;10.96;75.02;95242.72;4366383;32;20275;-49
2023/03/22 00:59:11;;;;;;;1.77;1.67;;;;;;;11.08;74.24;95236.91;4376003;32;20238;-47
2023/03/22 01:01:36;;;;;;;1.63;1.63;;;;;;;11.07;74.51;95240.62;4365871;32;20173;-49
2023/03/22 01:04:01;;;;;;;0.83;0.83;;;;;;;11.14;74.21;95240.25;4357223;32;20234;-48
2023/03/22 01:06:27;;;;;;;0.97;0.97;;;;;;;11.21;73.95;95230.00;4368547;32;20185;-46
2023/03/22 01:08:53;;;;;;;0.83;0.83;;;;;;;11.16;73.89;95243.38;4366677;32;20181;-51
2023/03/22 01:11:19;;;;;;;1.40;1.30;;;;;;;11.19;73.74;95243.59;4357223;32;20266;-50
2023/03/22 01:13:46;;;;;;;1.67;1.57;;;;;;;11.27;73.42;95240.19;4370959;32;20220;-50
2023/03/22 01:16:12;;;;;;;1.10;1.10;;;;;;;11.42;72.66;95241.75;4367887;32;20200;-50
2023/03/22 01:18:37;;;;;;;1.53;1.53;;;;;;;11.32;72.81;95241.97;4358556;32;20189;-49
2023/03/22 01:21:03;;;;;;;1.97;1.63;;;;;;;11.30;73.08;95249.44;4360588;32;20181;-48
2023/03/22 01:23:29;;;;;;;1.50;1.40;;;;;;;11.45;72.38;95241.12;4366089;32;20185;-58
2023/03/22 01:25:54;;;;;;;0.90;0.90;;;;;;;11.33;72.71;95244.31;4354375;32;20201;-49
2023/03/22 01:28:19;;;;;;;1.27;1.27;;;;;;;11.22;72.91;95245.63;4376123;32;20192;-48
2023/03/22 01:30:45;;;;;;;1.43;1.43;;;;;;;11.32;72.81;95240.09;4357796;32;20228;-48
2023/03/22 01:33:10;;;;;;;1.40;1.30;;;;;;;11.33;72.31;95227.59;4377245;32;20260;-48
2023/03/22 01:35:35;;;;;;;0.70;0.70;;;;;;;11.49;72.01;95223.50;4373761;32;20221;-50
2023/03/22 01:38:01;;;;;;;1.00;1.00;;;;;;;11.45;71.87;95227.84;4372166;32;20192;-47
2023/03/22 01:40:26;;;;;;;1.13;1.13;;;;;;;11.31;72.61;95221.81;4353554;32;20201;-47
2023/03/22 01:42:53;;;;;;;1.03;1.03;;;;;;;11.32;72.61;95218.84;4365723;32;20176;-51
2023/03/22 01:45:21;;;;;;;2.17;1.97;;;;;;;11.22;73.19;95224.38;4369132;32;21325;-47
2023/03/22 01:47:53;;;;;;;2.70;2.50;;;;;;;11.38;72.49;95210.78;4355553;32;20219;-48
2023/03/22 01:50:20;;;;;;;1.17;1.17;;;;;;;11.50;71.89;95206.47;4371160;32;20267;-48
2023/03/22 01:52:48;;;;;;;1.40;1.40;;;;;;;11.34;72.25;95205.28;4371496;32;20250;-47
2023/03/22 01:55:17;;;;;;;1.30;1.30;;;;;;;11.39;72.56;95210.47;4369047;32;20328;-48
2023/03/22 01:57:43;;;;;;;1.30;1.30;;;;;;;11.45;72.11;95213.78;4349641;32;20189;-49
2023/03/22 02:00:14;;;;;;;0.80;0.80;;;;;;;11.35;72.54;95212.16;4368082;32;20201;-51
2023/03/22 02:02:40;;;;;;;1.53;1.43;;;;;;;11.44;72.39;95212.22;4359803;32;20237;-47
2023/03/22 02:05:06;;;;;;;1.13;1.13;;;;;;;11.48;72.12;95216.63;4370926;32;20308;-48
2023/03/22 02:07:32;;;;;;;1.77;1.67;;;;;;;11.44;72.26;95212.22;4375754;32;20192;-49
2023/03/22 02:09:58;;;;;;;1.47;1.40;;;;;;;11.54;72.12;95206.66;4380364;32;20183;-51
2023/03/22 02:12:36;;;;;;;1.27;1.23;;;;;;;11.39;72.73;95207.03;4364333;32;20227;-49
2023/03/22 02:15:28;;;;;;;1.70;1.70;;;;;;;11.28;73.33;95209.13;4358362;32;20184;-48
2023/03/22 02:18:10;;;;;;;1.77;1.73;;;;;;;11.26;73.19;95211.28;4356252;32;20203;-51
2023/03/22 02:20:57;;;;;;;1.67;1.57;;;;;;;11.17;73.79;95210.44;4355940;32;20220;-47
2023/03/22 02:23:46;;;;;;;0.77;0.77;;;;;;;11.22;73.45;95208.44;4366366;32;20195;-50
2023/03/22 02:26:49;;;;;;;2.07;1.97;;;;;;;11.34;73.22;95214.03;4365175;32;20188;-50
2023/03/22 02:29:25;;;;;;;1.23;1.23;;;;;;;11.40;72.64;95206.72;4372733;32;20238;-49
2023/03/22 02:32:12;;;;;;;0.87;0.87;;;;;;;11.26;73.53;95200.66;4356028;32;20230;-48
2023/03/22 02:34:47;;;;;;;2.27;1.07;;;;;;;11.33;73.32;95195.72;4362078;32;20255;-47
2023/03/22 02:37:50;;;;;;;2.20;2.03;;;;;;;11.35;73.28;95188.25;4369727;32;20204;-51
2023/03/22 02:40:19;;;;;;;1.27;1.27;;;;;;;11.07;74.32;95189.41;4370954;32;20220;-49
2023/03/22 02:43:10;;;;;;;1.10;1.10;;;;;;;11.21;74.40;95190.97;4354593;32;20189;-49
2023/03/22 02:45:53;;;;;;;0.80;0.80;;;;;;;11.19;73.94;95189.69;4367348;32;20217;-46
2023/03/22 02:48:27;;;;;;;1.33;1.33;;;;;;;11.26;73.74;95190.81;4364370;32;23305;-50
2023/03/22 02:50:55;;;;;;;1.63;1.63;;;;;;;11.11;74.65;95190.38;4370145;32;20184;-49
2023/03/22 02:53:30;;;;;;;16.00;1.53;;;;;;;10.96;75.61;95192.31;4354718;32;20185;-50
2023/03/22 02:56:15;;;;;;;5.47;1.47;;;;;;;11.06;75.08;95201.13;4371785;32;20192;-46
2023/03/22 02:58:45;;;;;;;0.93;0.83;;;;;;;11.00;75.21;95197.81;4356030;32;20207;-49
2023/03/22 03:01:26;;;;;;;1.07;1.07;;;;;;;11.07;74.93;95208.78;4363898;32;20195;-47
2023/03/22 03:03:55;;;;;;;1.20;1.20;;;;;;;10.98;75.56;95208.72;4353315;32;20190;-51
2023/03/22 03:06:24;;;;;;;1.30;1.30;;;;;;;10.99;75.91;95207.63;4364707;32;20173;-52
2023/03/22 03:08:52;;;;;;;0.80;0.80;;;;;;;10.99;75.52;95206.84;4364718;32;20192;-50
2023/03/22 03:11:18;;;;;;;1.10;1.10;;;;;;;10.96;75.85;95207.44;4368210;32;20307;-51
2023/03/22 03:13:47;;;;;;;1.30;1.30;;;;;;;11.03;75.89;95213.91;4358655;32;20254;-51
2023/03/22 03:16:16;;;;;;;0.93;0.60;;;;;;;10.88;75.86;95214.22;4357113;32;20196;-53
2023/03/22 03:18:52;;;;;;;1.43;1.33;;;;;;;11.01;75.63;95213.41;4371596;32;20192;-50
2023/03/22 03:21:55;;;;;;;0.80;0.80;;;;;;;11.03;75.80;95208.59;4354326;32;20192;-50
2023/03/22 03:24:38;;;;;;;3.80;1.87;;;;;;;10.94;75.82;95213.03;4348660;32;20172;-49
2023/03/22 03:27:12;;;;;;;1.17;1.17;;;;;;;10.88;76.11;95216.09;4358096;32;20266;-50
2023/03/22 03:29:41;;;;;;;1.10;1.10;;;;;;;10.90;76.16;95221.91;4356540;32;20185;-48
2023/03/22 03:32:16;;;;;;;0.87;0.87;;;;;;;10.84;76.18;95220.41;4362488;32;20288;-47
2023/03/22 03:34:51;;;;;;;1.30;1.30;;;;;;;10.69;77.17;95218.88;4370365;32;20219;-50
2023/03/22 03:37:25;;;;;;;0.67;0.67;;;;;;;10.78;76.75;95214.44;4356468;32;20195;-46
2023/03/22 03:40:04;;;;;;;1.00;1.00;;;;;;;10.87;76.37;95220.63;4371862;32;20188;-52
2023/03/22 03:42:31;;;;;;;1.50;1.50;;;;;;;10.66;77.02;95214.16;4357379;32;20199;-48
2023/03/22 03:44:57;;;;;;;0.73;0.73;;;;;;;10.50;77.59;95218.19;4374928;32;20177;-49
2023/03/22 03:47:24;;;;;;;1.43;1.43;;;;;;;10.56;77.70;95220.47;4373720;32;20193;-51
2023/03/22 03:49:49;;;;;;;1.07;1.07;;;;;;;10.62;77.50;95219.25;4367639;32;20313;-49
2023/03/22 03:52:15;;;;;;;0.80;0.80;;;;;;;10.52;77.75;95216.03;4352828;32;20177;-51
2023/03/22 03:54:40;;;;;;;1.17;1.17;;;;;;;10.63;77.47;95222.69;4360285;32;20190;-48
2023/03/22 03:57:05;;;;;;;1.10;1.10;;;;;;;10.55;77.70;95224.19;4363682;32;20224;-46
2023/03/22 03:59:31;;;;;;;1.73;1.60;;;;;;;10.59;77.61;95219.09;4366225;32;20223;-50
2023/03/22 04:01:56;;;;;;;1.10;1.10;;;;;;;10.43;77.90;95209.81;4361525;32;20190;-52
2023/03/22 04:04:27;;;;;;;1.13;1.13;;;;;;;10.34;78.59;95212.41;4367663;32;20203;-50
2023/03/22 04:06:57;;;;;;;1.23;1.23;;;;;;;10.29;78.93;95212.47;4367132;32;20192;-48
2023/03/22 04:09:26;;;;;;;0.93;0.93;;;;;;;10.58;77.96;95204.25;4371017;32;20227;-48
2023/03/22 04:11:51;;;;;;;1.20;0.93;;;;;;;10.41;78.21;95209.34;4366633;32;20184;-49
2023/03/22 04:14:17;;;;;;;0.90;0.90;;;;;;;10.20;79.08;95203.62;4368534;32;20229;-48
2023/03/22 04:16:42;;;;;;;1.00;1.00;;;;;;;10.30;79.00;95206.87;4369981;32;20239;-49
2023/03/22 04:19:07;;;;;;;0.90;0.90;;;;;;;10.15;79.24;95207.16;4360321;32;20207;-49
2023/03/22 04:21:33;;;;;;;1.00;1.00;;;;;;;10.15;79.48;95204.50;4353493;32;20200;-50
2023/03/22 04:23:58;;;;;;;0.67;0.67;;;;;;;10.16;79.28;95202.62;4375148;32;20188;-49
2023/03/22 04:26:23;;;;;;;1.40;1.30;;;;;;;10.26;78.80;95205.13;4368999;32;20207;-50
2023/03/22 04:28:49;;;;;;;0.53;0.53;;;;;;;10.20;78.73;95204.41;4369275;32;20260;-47
2023/03/22 04:31:14;;;;;;;0.83;0.83;;;;;;;10.11;79.19;95214.09;4373615;32;20199;-47
2023/03/22 04:33:39;;;;;;;0.97;0.97;;;;;;;10.08;79.31;95209.38;4375172;32;20199;-48
2023/03/22 04:36:09;;;;;;;0.87;0.87;;;;;;;9.98;79.30;95210.34;4367299;32;20204;-50
2023/03/22 04:38:36;;;;;;;0.73;0.73;;;;;;;10.03;79.38;95206.03;4367261;32;20188;-48
2023/03/22 04:41:01;;;;;;;1.00;1.00;;;;;;;10.22;78.61;95206.78;4373344;32;20188;-48
2023/03/22 04:43:26;;;;;;;0.70;0.63;;;;;;;10.05;79.04;95196.72;4357750;32;20180;-46
2023/03/22 04:45:53;;;;;;;0.57;0.57;;;;;;;10.08;79.08;95198.78;4373253;32;20240;-46
2023/03/22 04:48:21;;;;;;;1.37;0.67;;;;;;;9.96;79.50;95195.84;4367335;32;20231;-48
2023/03/22 04:50:46;;;;;;;0.20;0.20;;;;;;;10.14;79.09;95186.22;4371532;32;20258;-51
2023/03/22 04:53:11;;;;;;;0.87;0.87;;;;;;;10.17;78.79;95197.03;4372591;32;20284;-49
2023/03/22 04:55:36;;;;;;;0.70;0.70;;;;;;;10.17;78.66;95189.09;4365847;32;20227;-50
2023/03/22 04:58:02;;;;;;;0.60;0.60;;;;;;;10.07;78.71;95191.91;4366386;32;20177;-48
2023/03/22 05:00:29;;;;;;;4.23;1.23;;;;;;;9.91;79.37;95193.25;4371734;32;20329;-46
2023/03/22 05:02:54;;;;;;;0.73;0.73;;;;;;;9.89;79.41;95190.13;4360506;32;20220;-49
2023/03/22 05:05:20;;;;;;;0.87;0.87;;;;;;;9.96;79.27;95191.31;4369177;32;20185;-48
2023/03/22 05:07:45;;;;;;;1.27;0.63;;;;;;;9.99;78.83;95197.88;4376253;32;20434;-51
2023/03/22 05:10:10;;;;;;;0.77;0.70;;;;;;;9.95;78.89;95202.22;4365536;32;20259;-49
2023/03/22 05:12:35;;;;;;;0.93;0.83;;;;;;;10.05;78.64;95199.37;4358138;32;20271;-51
2023/03/22 05:15:03;;;;;;;0.60;0.60;;;;;;;10.04;78.24;95203.09;4364472;32;20203;-50
2023/03/22 05:17:28;;;;;;;0.50;0.50;;;;;;;10.00;78.60;95207.41;4363749;32;20180;-47
2023/03/22 05:19:53;;;;;;;0.43;0.43;;;;;;;9.91;78.76;95204.66;4359291;32;20211;-50
2023/03/22 05:22:21;;;;;;;0.90;0.90;;;;;;;10.02;78.44;95196.50;4369970;32;20327;-48
2023/03/22 05:24:46;;;;;;;0.60;0.60;;;;;;;9.92;78.56;95205.44;4372939;32;20267;-47
2023/03/22 05:27:13;;;;;;;0.30;0.30;;;;;;;9.92;78.45;95203.56;4362623;32;20185;-51
2023/03/22 05:29:43;;;;;;;1.00;1.00;;;;;;;9.94;78.55;95203.28;4354942;32;20199;-50
2023/03/22 05:32:09;;;;;;;0.57;0.50;;;;;;;10.15;77.75;95209.00;4360656;32;20219;-48
2023/03/22 05:34:34;;;;;;;0.53;0.53;;;;;;;10.10;77.96;95211.75;4354717;32;20285;-48
2023/03/22 05:37:01;;;;;;;0.70;0.70;;;;;;;9.93;78.32;95207.81;4359428;32;20180;-49
2023/03/22 05:39:26;;;;;;;0.53;0.53;;;;;;;10.09;77.84;95204.88;4358499;32;20176;-46
2023/03/22 05:41:52;;;;;;;0.77;0.77;;;;;;;10.06;77.97;95208.88;4365780;32;20194;-47
2023/03/22 05:44:17;;;;;;;0.67;0.67;;;;;;;10.05;78.10;95211.84;4357697;32;20185;-46
2023/03/22 05:46:42;;;;;;;0.70;0.70;;;;;;;9.99;78.08;95208.47;4368601;32;20196;-50
2023/03/22 05:49:08;;;;;;;0.90;0.87;;;;;;;10.18;77.64;95209.22;4371089;32;20200;-49
2023/03/22 05:51:40;;;;;;;0.73;0.73;;;;;;;10.03;78.14;95212.13;4364360;32;20231;-48
2023/03/22 05:54:06;;;;;;;9.23;1.17;;;;;;;10.13;78.03;95209.31;4363069;32;20177;-48
2023/03/22 05:56:31;;;;;;;1.27;1.13;;;;;;;10.13;77.73;95217.25;4358940;32;20168;-49
2023/03/22 05:58:57;;;;;;;0.87;0.87;;;;;;;10.15;77.67;95216.97;4378862;32;20226;-49
2023/03/22 06:01:24;;;;;;;0.83;0.83;;;;;;;10.16;77.59;95215.88;4360440;32;20177;-47
2023/03/22 06:03:49;;;;;;;1.47;1.37;;;;;;;10.18;77.80;95211.88;4357452;32;20278;-47
2023/03/22 06:06:15;;;;;;;0.60;0.60;;;;;;;10.13;78.53;95216.47;4368467;32;20199;-49
2023/03/22 06:08:40;;;;;;;0.83;0.83;;;;;;;10.09;78.37;95208.31;4369849;32;20208;-52
2023/03/22 06:11:06;;;;;;;0.87;0.87;;;;;;;10.15;78.09;95215.09;4369046;32;20212;-45
2023/03/22 06:13:32;;;;;;;1.13;1.03;;;;;;;10.23;77.81;95211.00;4373507;32;20177;-50
2023/03/22 06:15:59;;;;;;;0.93;0.83;;;;;;;10.19;77.83;95210.78;4360541;32;20230;-48
2023/03/22 06:18:24;;;;;;;0.40;0.40;;;;;;;10.28;77.67;95206.41;4369813;32;20199;-50
2023/03/22 06:20:50;;;;;;;1.07;1.07;;;;;;;10.23;77.62;95213.66;4375282;32;20201;-49
2023/03/22 06:23:15;;;;;;;1.37;1.37;;;;;;;10.31;77.56;95207.69;4373458;32;20197;-49
2023/03/22 06:25:40;;;;;;;0.90;0.90;;;;;;;10.43;77.20;95220.44;4366134;32;20204;-48
2023/03/22 06:28:06;;;;;;;1.23;1.13;;;;;;;10.34;77.32;95212.41;4356573;32;20231;-47
2023/03/22 06:30:31;;;;;;;0.70;0.70;;;;;;;10.37;77.00;95211.81;4377344;32;20188;-49
2023/03/22 06:32:59;;;;;;;0.70;0.70;;;;;;;10.39;77.35;95216.81;4371438;32;20256;-49
2023/03/22 06:35:25;;;;;;;1.23;1.23;;;;;;;10.36;77.38;95212.09;4368281;32;20180;-52
2023/03/22 06:37:50;;;;;;;0.70;0.70;;;;;;;10.30;77.38;95206.87;4375003;32;20176;-51
2023/03/22 06:40:16;;;;;;;0.93;0.93;;;;;;;10.58;76.55;95217.50;4377791;32;20239;-55
2023/03/22 06:42:41;;;;;;;2.30;1.10;;;;;;;11.20;88.02;95212.50;4375625;32;20204;-56
2023/03/22 06:45:07;;;;;;;0.90;0.90;;;;;;;11.98;90.50;95212.00;4375868;32;20199;-57
2023/03/22 06:47:32;;;;;;;6.77;2.10;;;;;;;12.52;87.52;95203.94;4359154;32;20185;-55
2023/03/22 06:49:58;;;;;;;4.27;1.90;;;;;;;13.05;85.06;95207.22;4370930;32;20195;-53
2023/03/22 06:52:23;;;;;;;1.07;1.03;;;;;;;13.52;82.45;95206.63;4366789;32;20177;-55
2023/03/22 06:54:49;;;;;;;8.83;2.30;;;;;;;13.58;73.97;95208.03;4376078;32;20298;-55
2023/03/22 06:57:14;;;;;;;2.50;1.80;;;;;;;14.15;74.11;95205.13;4363086;32;20191;-55
2023/03/22 06:59:40;;;;;;;3.80;1.40;;;;;;;14.55;73.50;95208.34;4356040;32;20235;-56
2023/03/22 07:02:05;;;;;;;0.80;0.70;;;;;;;14.56;67.05;95215.22;4374442;32;20185;-48
2023/03/22 07:04:31;;;;;;;1.67;1.03;;;;;;;14.12;60.00;95211.91;4364427;32;20263;-50
2023/03/22 07:06:57;;;;;;;2.37;1.07;;;;;;;13.44;61.89;95216.22;4364914;32;20185;-48
2023/03/22 07:09:26;;;;;;;2.63;1.00;;;;;;;12.87;63.61;95216.28;4371236;32;20185;-47
2023/03/22 07:11:51;;;;;;;0.50;0.50;;;;;;;12.42;65.29;95220.19;4353232;32;20185;-50
2023/03/22 07:14:17;;;;;;;0.37;0.37;;;;;;;12.19;66.43;95217.59;4370715;32;20250;-51
2023/03/22 07:16:42;;;;;;;0.63;0.60;;;;;;;12.10;66.94;95219.41;4360172;32;20177;-50
2023/03/22 07:19:08;;;;;;;1.40;0.97;;;;;;;11.71;68.33;95218.19;4369607;32;20306;-50
2023/03/22 07:21:33;;;;;;;0.63;0.63;;;;;;;11.60;69.22;95219.53;4360983;32;20244;-52
2023/03/22 07:23:58;;;;;;;0.40;0.40;;;;;;;11.59;69.57;95220.63;4362937;32;20185;-50
2023/03/22 07:26:25;;;;;;;13.57;0.93;;;;;;;11.61;69.90;95213.16;4375878;32;20181;-50
2023/03/22 07:28:50;;;;;;;0.50;0.50;;;;;;;11.66;70.47;95220.97;4355969;32;20186;-49
2023/03/22 07:31:16;;;;;;;0.67;0.67;;;;;;;11.77;70.09;95220.78;4373367;32;20207;-50
2023/03/22 07:33:41;;;;;;;0.53;0.53;;;;;;;11.79;70.10;95219.38;4353029;32;20184;-48
2023/03/22 07:36:08;;;;;;;0.53;0.53;;;;;;;11.79;69.76;95224.69;4353660;32;20203;-50
2023/03/22 07:38:34;;;;;;;2.33;0.57;;;;;;;11.81;68.77;95230.50;4368542;32;20189;-48
2023/03/22 07:40:59;;;;;;;1.80;1.20;;;;;;;12.03;68.46;95225.16;4348528;32;20223;-54
2023/03/22 07:43:25;;;;;;;3.40;0.90;;;;;;;12.06;68.20;95215.78;4366302;32;20177;-47
2023/03/22 07:45:51;;;;;;;0.83;0.83;;;;;;;12.08;68.54;95218.91;4362790;32;20181;-47
2023/03/22 07:48:21;;;;;;;3.53;1.80;;;;;;;11.97;69.07;95230.91;4360171;32;20277;-50
2023/03/22 07:50:46;;;;;;;1.50;0.80;;;;;;;12.15;68.29;95221.16;4359796;32;20242;-49
2023/03/22 07:53:12;;;;;;;0.50;0.50;;;;;;;12.16;68.00;95226.16;4373067;32;20181;-48
2023/03/22 07:55:37;;;;;;;0.40;0.40;;;;;;;12.25;67.32;95226.22;4369029;32;20214;-48
2023/03/22 07:58:04;;;;;;;0.20;0.20;;;;;;;12.31;67.06;95217.78;4356798;32;20221;-48
2023/03/22 08:00:30;;;;;;;17.33;1.13;;;;;;;12.20;67.24;95226.34;4376523;32;20203;-48
2023/03/22 08:02:55;;;;;;;0.97;0.87;;;;;;;12.19;67.02;95224.78;4364671;32;20181;-48
2023/03/22 08:05:21;;;;;;;1.23;0.80;;;;;;;12.37;66.80;95226.41;4370327;32;20180;-49
2023/03/22 08:07:47;;;;;;;0.63;0.63;;;;;;;12.45;66.78;95217.69;4367083;32;20502;-49
2023/03/22 08:10:12;;;;;;;1.13;1.13;;;;;;;12.55;65.77;95225.41;4364661;32;20223;-50
2023/03/22 08:12:38;;;;;;;0.83;0.83;;;;;;;12.55;66.04;95228.06;4357144;32;20193;-49
2023/03/22 08:15:04;;;;;;;2.23;0.80;;;;;;;12.61;66.04;95224.19;4370540;32;20233;-48
2023/03/22 08:17:29;;;;;;;1.77;1.67;;;;;;;12.60;66.47;95224.47;4369342;32;20188;-55
2023/03/22 08:19:55;;;;;;;1.80;1.70;;;;;;;12.73;66.29;95220.91;4356145;32;20181;-50
2023/03/22 08:22:24;;;;;;;0.83;0.73;;;;;;;12.80;65.98;95231.91;4375970;32;20219;-47
2023/03/22 08:24:50;;;;;;;1.80;1.07;;;;;;;12.86;66.57;95214.69;4367383;32;20256;-49
2023/03/22 08:27:17;;;;;;;0.67;0.67;;;;;;;12.91;66.02;95216.41;4354048;32;20195;-49
2023/03/22 08:29:43;;;;;;;0.77;0.50;;;;;;;13.09;65.52;95224.13;4361483;32;20227;-46
2023/03/22 08:32:08;;;;;;;0.67;0.67;;;;;;;13.11;65.49;95221.16;4376248;32;20192;-50
2023/03/22 08:34:39;;;;;;;30.27;2.83;;;;;;;13.05;66.02;95217.88;4366820;32;20267;-48
2023/03/22 08:37:05;;;;;;;1.13;1.03;;;;;;;13.21;65.70;95222.78;4361559;32;20192;-47
2023/03/22 08:39:31;;;;;;;1.60;1.50;;;;;;;13.22;65.50;95216.34;4355059;32;20188;-48
2023/03/22 08:41:57;;;;;;;0.93;0.93;;;;;;;13.24;66.95;95222.16;4372317;32;20196;-48
2023/03/22 08:44:22;;;;;;;1.20;1.20;;;;;;;13.28;65.84;95226.56;4373714;32;20199;-48
2023/03/22 08:46:48;;;;;;;10.93;2.23;;;;;;;13.44;65.50;95218.09;4353456;32;20193;-47
2023/03/22 08:49:13;;;;;;;1.70;1.60;;;;;;;13.56;64.62;95218.22;4366048;32;20256;-49
2023/03/22 08:51:39;;;;;;;1.37;1.37;;;;;;;13.62;64.80;95214.31;4351971;32;20195;-47
2023/03/22 08:54:04;;;;;;;4.23;2.87;;;;;;;13.66;64.00;95202.72;4364077;32;20294;-46
2023/03/22 08:56:31;;;;;;;2.17;1.73;;;;;;;13.84;63.76;95205.34;4357392;32;20177;-48
2023/03/22 08:58:56;;;;;;;1.80;1.70;;;;;;;13.90;63.78;95204.88;4359468;32;20188;-49
2023/03/22 09:01:22;;;;;;;1.27;1.27;;;;;;;13.90;62.27;95199.56;4354682;32;20181;-47
2023/03/22 09:03:47;;;;;;;2.37;1.83;;;;;;;14.03;64.14;95203.12;4359067;32;20208;-48
2023/03/22 09:06:13;;;;;;;1.77;1.67;;;;;;;14.11;62.27;95207.66;4370215;32;20177;-48
2023/03/22 09:08:40;;;;;;;2.07;1.97;;;;;;;14.11;62.62;95202.31;4367734;32;20184;-47
2023/03/22 09:11:08;;;;;;;1.00;1.00;;;;;;;14.14;62.20;95193.66;4372941;32;20185;-50
2023/03/22 09:13:33;;;;;;;1.47;1.37;;;;;;;14.34;61.45;95200.97;4366473;32;20177;-52
2023/03/22 09:15:59;;;;;;;1.10;1.10;;;;;;;14.44;61.00;95207.87;4369714;32;20181;-50
2023/03/22 09:18:25;;;;;;;0.97;0.97;;;;;;;14.54;60.14;95206.75;4370098;32;20241;-49
2023/03/22 09:20:51;;;;;;;1.77;1.67;;;;;;;14.36;60.71;95201.44;4375544;32;20216;-50
2023/03/22 09:23:16;;;;;;;4.03;1.60;;;;;;;14.55;60.17;95198.41;4359231;32;20188;-47
2023/03/22 09:25:43;;;;;;;2.43;1.13;;;;;;;14.61;59.18;95191.78;4372781;32;20208;-49
2023/03/22 09:28:08;;;;;;;2.77;1.43;;;;;;;14.63;59.86;95186.91;4365644;32;20184;-48
2023/03/22 09:30:35;;;;;;;1.40;1.40;;;;;;;14.73;60.15;95189.22;4371772;32;20184;-48
2023/03/22 09:33:00;;;;;;;1.50;1.40;;;;;;;14.69;59.82;95190.19;4356803;32;20203;-52
2023/03/22 09:35:25;;;;;;;1.00;1.00;;;;;;;14.79;58.97;95181.78;4380585;32;20184;-47
2023/03/22 09:37:53;;;;;;;1.53;1.47;;;;;;;14.87;59.04;95180.97;4362951;32;20181;-52
2023/03/22 09:40:20;;;;;;;1.53;1.20;;;;;;;14.80;58.43;95183.37;4373456;32;20267;-49
2023/03/22 09:42:50;;;;;;;0.70;0.70;;;;;;;14.95;58.30;95174.81;4370244;32;20189;-51
2023/03/22 09:45:19;;;;;;;0.93;0.93;;;;;;;14.99;56.33;95175.69;4364713;32;20264;-51
2023/03/22 09:47:50;;;;;;;1.57;1.47;;;;;;;15.04;55.46;95174.75;4365274;32;20215;-53
2023/03/22 09:50:21;;;;;;;0.83;0.83;;;;;;;15.13;55.31;95168.25;4376752;32;20221;-52
2023/03/22 09:52:47;;;;;;;1.43;1.07;;;;;;;15.20;55.91;95169.59;4375387;32;20251;-51
2023/03/22 09:55:49;;;;;;;0.57;0.57;;;;;;;15.25;56.07;95167.50;4371888;32;20326;-52
2023/03/22 09:58:31;;;;;;;0.50;0.50;;;;;;;15.25;56.30;95167.50;4342196;32;20184;-53
2023/03/22 10:01:23;;;;;;;0.90;0.90;;;;;;;15.24;55.41;95155.25;4362702;32;20217;-53
2023/03/22 10:04:26;;;;;;;0.93;0.93;;;;;;;15.22;53.67;95164.69;4348990;32;20204;-51
2023/03/22 10:07:27;;;;;;;0.70;0.70;;;;;;;15.27;54.31;95164.50;4358096;32;20177;-49
2023/03/22 10:10:16;;;;;;;0.60;0.60;;;;;;;15.28;55.68;95152.72;4355393;32;20243;-50
2023/03/22 10:12:48;;;;;;;1.00;1.00;;;;;;;15.42;55.67;95143.31;4374767;32;20172;-49
2023/03/22 10:15:17;;;;;;;0.40;0.40;;;;;;;15.59;55.00;95147.75;4367720;32;20190;-47
2023/03/22 10:17:47;;;;;;;0.67;0.67;;;;;;;15.57;53.30;95141.97;4368064;32;20181;-49
2023/03/22 10:20:39;;;;;;;0.40;0.40;;;;;;;15.57;54.30;95141.97;4352476;32;20186;-48
2023/03/22 10:23:11;;;;;;;4.73;1.00;;;;;;;15.66;54.09;95136.53;4350324;32;20207;-50
2023/03/22 10:25:39;;;;;;;0.87;0.87;;;;;;;15.57;54.33;95125.91;4370859;32;20189;-49
2023/03/22 10:28:15;;;;;;;0.57;0.57;;;;;;;15.81;52.92;95139.34;4370801;32;20201;-47
2023/03/22 10:30:41;;;;;;;1.03;1.03;;;;;;;15.86;53.00;95132.22;4362294;32;20208;-47
2023/03/22 10:33:24;;;;;;;0.53;0.53;;;;;;;15.76;53.33;95128.88;4369870;32;20260;-49
2023/03/22 10:35:51;;;;;;;3.23;0.87;;;;;;;15.84;52.50;95123.75;4374439;32;20173;-47
2023/03/22 10:38:27;;;;;;;1.40;1.30;;;;;;;15.95;52.28;95119.56;4359392;32;20224;-52
2023/03/22 10:40:56;;;;;;;0.83;0.83;;;;;;;15.92;51.91;95117.53;4351150;32;20193;-46
2023/03/22 10:43:36;;;;;;;19.07;5.07;;;;;;;15.96;51.25;95121.91;4364535;32;20202;-52
2023/03/22 10:46:06;;;;;;;1.03;1.03;;;;;;;16.07;51.10;95117.66;4364889;32;20203;-51
2023/03/22 10:48:45;;;;;;;1.47;1.00;;;;;;;15.92;52.07;95110.28;4369767;32;20181;-46
2023/03/22 10:51:20;;;;;;;1.20;1.10;;;;;;;16.02;51.89;95119.75;4368622;32;20196;-50
2023/03/22 10:53:49;;;;;;;1.07;0.80;;;;;;;15.97;50.92;95115.44;4369104;32;20278;-51
2023/03/22 10:56:18;;;;;;;4.50;1.23;;;;;;;16.04;50.77;95122.91;4354926;32;20204;-46
2023/03/22 10:58:44;;;;;;;0.20;0.20;;;;;;;16.04;50.51;95112.19;4359101;32;20234;-51
2023/03/22 11:01:13;;;;;;;0.40;0.40;;;;;;;16.21;49.06;95111.22;4370441;32;20177;-50
2023/03/22 11:03:39;;;;;;;0.10;0.10;;;;;;;16.22;48.15;95110.09;4374289;32;20258;-47
2023/03/22 11:06:22;;;;;;;0.47;0.47;;;;;;;16.26;49.31;95102.94;4372696;32;20188;-49
2023/03/22 11:08:52;;;;;;;0.30;0.30;;;;;;;16.41;46.02;95107.66;4362696;32;20216;-46
2023/03/22 11:11:33;;;;;;;0.60;0.60;;;;;;;16.46;45.98;95108.19;4371865;32;20238;-51
2023/03/22 11:14:05;;;;;;;0.40;0.40;;;;;;;16.39;47.44;95116.03;4369264;32;20177;-48
2023/03/22 11:16:39;;;;;;;0.60;0.60;;;;;;;16.41;47.03;95111.12;4366648;32;20298;-50
2023/03/22 11:19:04;;;;;;;0.27;0.27;;;;;;;16.43;45.87;95108.09;4370395;32;20180;-51
2023/03/22 11:21:32;;;;;;;0.33;0.33;;;;;;;16.52;45.09;95110.66;4354882;32;20237;-49
2023/03/22 11:24:09;;;;;;;0.47;0.30;;;;;;;16.57;48.15;95108.53;4369820;32;20218;-49
2023/03/22 11:26:36;;;;;;;0.40;0.40;;;;;;;16.57;45.32;95105.88;4366052;32;20181;-50
2023/03/22 11:29:25;;;;;;;0.37;0.37;;;;;;;16.62;45.19;95094.16;4356637;32;20196;-50
2023/03/22 11:31:59;;;;;;;0.40;0.40;;;;;;;16.62;45.22;95105.66;4366688;32;20280;-49
2023/03/22 11:34:30;;;;;;;0.20;0.20;;;;;;;16.69;45.61;95105.88;4375585;32;20254;-46
2023/03/22 11:36:59;;;;;;;0.20;0.20;;;;;;;16.58;46.26;95101.28;4366356;32;20207;-49
2023/03/22 11:39:27;;;;;;;0.30;0.30;;;;;;;16.69;46.45;95102.41;4369314;32;20193;-50
2023/03/22 11:42:00;;;;;;;4.90;0.73;;;;;;;16.60;48.28;95088.34;4373651;32;20177;-49